createdAt,value
2023-05-02T00:01:16.760Z,8.06
2023-05-02T00:03:45.406Z,8.06
2023-05-02T00:06:12.744Z,7.93
2023-05-02T00:08:40.410Z,7.59
2023-05-02T00:11:07.611Z,7.41
2023-05-02T00:13:34.687Z,7.43
2023-05-02T00:16:01.967Z,7.57
2023-05-02T00:18:29.045Z,7.73
2023-05-02T00:20:56.992Z,7.66
2023-05-02T00:23:24.152Z,7.67
2023-05-02T00:25:51.286Z,7.49
2023-05-02T00:28:18.722Z,7.38
2023-05-02T00:30:47.558Z,7.23
2023-05-02T00:33:15.840Z,7.14
2023-05-02T00:35:43.128Z,7.32
2023-05-02T00:38:10.635Z,7.23
2023-05-02T00:40:44.933Z,7.22
2023-05-02T00:43:12.171Z,7.33
2023-05-02T00:45:43.367Z,7.49
2023-05-02T00:48:11.273Z,7.55
2023-05-02T00:50:40.500Z,7.56
2023-05-02T00:53:08.235Z,7.59
2023-05-02T00:55:35.690Z,7.59
2023-05-02T00:58:11.768Z,7.47
2023-05-02T01:00:45.296Z,7.50
2023-05-02T01:03:20.870Z,7.50
2023-05-02T01:05:52.547Z,7.44
2023-05-02T01:08:25.957Z,7.41
2023-05-02T01:10:59.867Z,7.42
2023-05-02T01:13:29.113Z,7.32
2023-05-02T01:15:58.350Z,7.26
2023-05-02T01:18:28.110Z,7.25
2023-05-02T01:20:58.455Z,7.13
2023-05-02T01:23:32.739Z,7.11
2023-05-02T01:25:59.862Z,7.08
2023-05-02T01:28:48.154Z,7.21
2023-05-02T01:31:16.288Z,6.98
2023-05-02T01:33:44.676Z,6.89
2023-05-02T01:36:13.257Z,7.00
2023-05-02T01:38:42.493Z,7.08
2023-05-02T01:41:10.967Z,6.85
2023-05-02T01:43:38.968Z,6.85
2023-05-02T01:46:09.504Z,6.88
2023-05-02T01:48:36.633Z,6.91
2023-05-02T01:51:05.880Z,6.73
2023-05-02T01:53:34.351Z,6.86
2023-05-02T01:56:01.805Z,6.91
2023-05-02T01:58:30.736Z,6.85
2023-05-02T02:00:59.868Z,6.83
2023-05-02T02:03:29.664Z,6.62
2023-05-02T02:05:56.909Z,6.67
2023-05-02T02:08:24.440Z,6.60
2023-05-02T02:10:57.397Z,6.61
2023-05-02T02:13:31.158Z,6.70
2023-05-02T02:15:59.564Z,6.70
2023-05-02T02:18:27.777Z,6.65
2023-05-02T02:20:55.415Z,6.47
2023-05-02T02:23:25.100Z,6.43
2023-05-02T02:25:52.339Z,6.28
2023-05-02T02:28:19.393Z,6.25
2023-05-02T02:30:46.451Z,6.44
2023-05-02T02:33:13.740Z,6.47
2023-05-02T02:35:43.280Z,6.46
2023-05-02T02:38:16.469Z,6.35
2023-05-02T02:40:43.646Z,6.11
2023-05-02T02:43:29.923Z,6.04
2023-05-02T02:46:14.576Z,6.24
2023-05-02T02:48:51.697Z,6.25
2023-05-02T02:51:51.214Z,6.33
2023-05-02T02:57:17.563Z,6.40
2023-05-02T02:59:49.666Z,6.47
2023-05-02T03:02:18.698Z,6.32
2023-05-02T03:04:46.882Z,6.19
2023-05-02T03:07:14.986Z,6.23
2023-05-02T03:09:45.813Z,6.28
2023-05-02T03:12:17.598Z,6.30
2023-05-02T03:14:45.366Z,6.37
2023-05-02T03:17:12.479Z,6.38
2023-05-02T03:19:39.539Z,6.32
2023-05-02T03:22:06.704Z,6.30
2023-05-02T03:24:35.842Z,6.37
2023-05-02T03:27:04.579Z,6.39
2023-05-02T03:29:38.132Z,6.36
2023-05-02T03:32:06.028Z,6.42
2023-05-02T03:34:33.704Z,6.40
2023-05-02T03:37:01.352Z,6.37
2023-05-02T03:39:29.482Z,6.40
2023-05-02T03:41:56.569Z,6.41
2023-05-02T03:44:24.956Z,6.38
2023-05-02T03:46:52.510Z,6.38
2023-05-02T03:49:20.481Z,6.35
2023-05-02T03:51:49.636Z,6.27
2023-05-02T03:54:22.230Z,6.30
2023-05-02T03:56:49.926Z,6.32
2023-05-02T03:59:25.320Z,6.32
2023-05-02T04:01:52.948Z,6.39
2023-05-02T04:04:26.031Z,6.15
2023-05-02T04:06:55.029Z,6.02
2023-05-02T04:09:25.328Z,5.92
2023-05-02T04:11:57.524Z,5.91
2023-05-02T04:14:24.777Z,5.94
2023-05-02T04:16:54.073Z,5.85
2023-05-02T04:19:29.365Z,5.90
2023-05-02T04:21:56.566Z,6.01
2023-05-02T04:24:23.731Z,6.15
2023-05-02T04:26:50.830Z,6.09
2023-05-02T04:29:17.855Z,6.06
2023-05-02T04:31:45.036Z,6.03
2023-05-02T04:34:13.817Z,6.17
2023-05-02T04:36:47.559Z,6.25
2023-05-02T04:39:20.101Z,6.33
2023-05-02T04:41:57.125Z,6.37
2023-05-02T04:44:26.709Z,6.45
2023-05-02T04:46:55.110Z,6.44
2023-05-02T04:49:22.147Z,6.44
2023-05-02T04:51:49.237Z,6.39
2023-05-02T04:54:16.332Z,6.39
2023-05-02T04:56:44.413Z,6.43
2023-05-02T04:59:12.830Z,6.46
2023-05-02T05:01:39.923Z,6.52
2023-05-02T05:04:08.922Z,6.52
2023-05-02T05:06:36.672Z,6.49
2023-05-02T05:09:04.647Z,6.54
2023-05-02T05:11:34.137Z,6.63
2023-05-02T05:14:04.078Z,6.64
2023-05-02T05:16:33.441Z,6.67
2023-05-02T05:19:00.837Z,6.75
2023-05-02T05:21:28.401Z,6.81
2023-05-02T05:23:56.248Z,6.86
2023-05-02T05:26:26.837Z,6.98
2023-05-02T05:28:54.580Z,7.08
2023-05-02T05:31:24.412Z,7.14
2023-05-02T05:33:55.170Z,7.21
2023-05-02T05:36:23.747Z,7.40
2023-05-02T05:38:51.541Z,7.53
2023-05-02T05:41:19.535Z,7.61
2023-05-02T05:43:50.343Z,7.79
2023-05-02T05:46:17.524Z,7.86
2023-05-02T05:48:44.540Z,8.05
2023-05-02T05:51:11.792Z,8.21
2023-05-02T05:53:38.858Z,8.27
2023-05-02T05:56:12.276Z,8.32
2023-05-02T05:58:44.119Z,8.38
2023-05-02T06:01:13.097Z,8.50
2023-05-02T06:03:40.974Z,8.66
2023-05-02T06:06:08.489Z,8.90
2023-05-02T06:08:35.566Z,9.09
2023-05-02T06:11:02.682Z,9.38
2023-05-02T06:13:29.829Z,9.67
2023-05-02T06:16:00.409Z,10.05
2023-05-02T06:18:27.492Z,10.08
2023-05-02T06:20:54.608Z,10.39
2023-05-02T06:23:21.635Z,10.37
2023-05-02T06:25:48.751Z,10.53
2023-05-02T06:28:15.798Z,10.50
2023-05-02T06:30:42.849Z,10.50
2023-05-02T06:33:10.025Z,10.48
2023-05-02T06:35:37.171Z,10.59
2023-05-02T06:38:04.193Z,10.48
2023-05-02T06:40:31.241Z,10.60
2023-05-02T06:42:58.290Z,10.61
2023-05-02T06:45:25.585Z,10.75
2023-05-02T06:47:52.760Z,10.87
2023-05-02T06:50:20.027Z,11.08
2023-05-02T06:52:47.055Z,11.13
2023-05-02T06:55:14.249Z,11.03
2023-05-02T06:57:41.578Z,10.96
2023-05-02T07:00:08.976Z,10.99
2023-05-02T07:02:36.011Z,10.90
2023-05-02T07:05:03.456Z,10.89
2023-05-02T07:07:30.511Z,10.96
2023-05-02T07:09:57.725Z,10.98
2023-05-02T07:12:25.648Z,10.97
2023-05-02T07:14:52.673Z,11.01
2023-05-02T07:17:19.916Z,11.17
2023-05-02T07:19:47.167Z,11.09
2023-05-02T07:22:14.289Z,11.30
2023-05-02T07:24:41.749Z,11.19
2023-05-02T07:27:12.572Z,11.25
2023-05-02T07:29:39.656Z,11.30
2023-05-02T07:32:06.753Z,11.08
2023-05-02T07:34:33.852Z,10.98
2023-05-02T07:37:00.918Z,10.86
2023-05-02T07:39:28.000Z,10.91
2023-05-02T07:41:55.176Z,11.07
2023-05-02T07:44:22.233Z,10.95
2023-05-02T07:46:49.312Z,10.83
2023-05-02T07:49:16.452Z,10.81
2023-05-02T07:51:45.769Z,10.76
2023-05-02T07:54:19.741Z,10.77
2023-05-02T07:56:47.340Z,10.66
2023-05-02T07:59:14.544Z,10.51
2023-05-02T08:01:41.862Z,10.50
2023-05-02T08:04:11.134Z,10.56
2023-05-02T08:06:38.481Z,10.61
2023-05-02T08:09:05.575Z,10.60
2023-05-02T08:11:32.760Z,10.68
2023-05-02T08:13:59.795Z,10.78
2023-05-02T08:16:26.842Z,10.76
2023-05-02T08:18:53.929Z,10.68
2023-05-02T08:21:21.121Z,10.72
2023-05-02T08:23:48.174Z,10.73
2023-05-02T08:26:16.065Z,10.66
2023-05-02T08:28:43.187Z,10.74
2023-05-02T08:31:10.794Z,10.81
2023-05-02T08:33:37.838Z,10.83
2023-05-02T08:36:17.873Z,10.80
2023-05-02T08:38:45.884Z,10.82
2023-05-02T08:41:14.528Z,10.82
2023-05-02T08:43:41.628Z,10.96
2023-05-02T08:46:10.145Z,10.96
2023-05-02T08:48:38.169Z,10.95
2023-05-02T08:51:08.141Z,11.01
2023-05-02T08:53:35.743Z,11.02
2023-05-02T08:56:02.847Z,10.93
2023-05-02T08:58:32.497Z,11.03
2023-05-02T09:01:04.728Z,10.98
2023-05-02T09:03:32.883Z,10.87
2023-05-02T09:06:04.551Z,10.90
2023-05-02T09:08:31.570Z,11.02
2023-05-02T09:10:58.763Z,11.15
2023-05-02T09:13:35.351Z,11.16
2023-05-02T09:16:03.889Z,11.10
2023-05-02T09:18:32.309Z,11.20
2023-05-02T09:21:00.148Z,11.30
2023-05-02T09:23:40.708Z,11.38
2023-05-02T09:26:11.869Z,11.35
2023-05-02T09:28:41.064Z,11.48
2023-05-02T09:31:09.608Z,11.61
2023-05-02T09:33:37.353Z,11.60
2023-05-02T09:36:05.130Z,11.75
2023-05-02T09:38:32.382Z,11.88
2023-05-02T09:40:59.465Z,12.07
2023-05-02T09:43:26.611Z,12.15
2023-05-02T09:45:57.641Z,12.43
2023-05-02T09:48:25.217Z,12.54
2023-05-02T09:50:52.277Z,12.60
2023-05-02T09:53:19.361Z,12.87
2023-05-02T09:55:46.446Z,12.86
2023-05-02T09:58:21.739Z,13.08
2023-05-02T10:00:49.803Z,13.31
2023-05-02T10:03:17.782Z,13.44
2023-05-02T10:05:46.058Z,13.48
2023-05-02T10:08:13.889Z,13.61
2023-05-02T10:10:44.819Z,13.68
2023-05-02T10:13:13.277Z,14.09
2023-05-02T10:15:44.747Z,14.07
2023-05-02T10:18:14.494Z,14.33
2023-05-02T10:20:44.835Z,14.35
2023-05-02T10:23:12.357Z,14.52
2023-05-02T10:25:39.821Z,14.57
2023-05-02T10:28:06.993Z,15.02
2023-05-02T10:30:35.282Z,15.12
2023-05-02T10:33:03.115Z,15.23
2023-05-02T10:35:31.933Z,15.16
2023-05-02T10:38:00.546Z,15.30
2023-05-02T10:40:27.670Z,15.30
2023-05-02T10:42:54.899Z,15.30
2023-05-02T10:45:35.114Z,15.36
2023-05-02T10:48:14.130Z,15.26
2023-05-02T10:50:44.919Z,15.09
2023-05-02T10:53:24.335Z,15.16
2023-05-02T10:56:09.955Z,15.19
2023-05-02T10:58:37.332Z,15.33
2023-05-02T11:01:24.668Z,15.27
2023-05-02T11:03:53.788Z,15.36
2023-05-02T11:06:20.961Z,15.22
2023-05-02T11:08:48.111Z,15.40
2023-05-02T11:11:33.654Z,15.34
2023-05-02T11:14:00.844Z,15.43
2023-05-02T11:16:27.893Z,15.55
2023-05-02T11:18:58.325Z,15.64
2023-05-02T11:21:28.565Z,15.57
2023-05-02T11:24:14.466Z,15.56
2023-05-02T11:26:41.519Z,15.42
2023-05-02T11:29:08.643Z,15.66
2023-05-02T11:31:35.651Z,15.77
2023-05-02T11:34:03.481Z,15.60
2023-05-02T11:36:33.473Z,15.65
2023-05-02T11:39:05.713Z,15.80
2023-05-02T11:41:42.483Z,15.68
2023-05-02T11:44:09.752Z,15.77
2023-05-02T11:46:37.416Z,15.81
2023-05-02T11:49:06.886Z,15.95
2023-05-02T11:51:35.501Z,15.98
2023-05-02T11:54:03.395Z,16.06
2023-05-02T11:56:30.450Z,16.04
2023-05-02T11:58:58.277Z,16.16
2023-05-02T12:01:25.414Z,16.07
2023-05-02T12:04:01.780Z,16.27
2023-05-02T12:06:28.925Z,16.30
2023-05-02T12:09:06.125Z,16.06
2023-05-02T12:11:33.188Z,16.30
2023-05-02T12:14:00.344Z,16.74
2023-05-02T12:16:27.505Z,16.79
2023-05-02T12:18:56.767Z,16.85
2023-05-02T12:21:23.838Z,16.79
2023-05-02T12:23:51.005Z,16.89
2023-05-02T12:26:19.355Z,16.95
2023-05-02T12:28:54.692Z,17.16
2023-05-02T12:31:22.684Z,17.05
2023-05-02T12:33:51.752Z,17.06
2023-05-02T12:36:19.360Z,16.39
2023-05-02T12:38:52.320Z,16.98
2023-05-02T12:41:30.036Z,17.16
2023-05-02T12:43:58.424Z,17.29
2023-05-02T12:46:27.068Z,17.27
2023-05-02T12:49:03.294Z,17.60
2023-05-02T12:51:31.726Z,17.75
2023-05-02T12:53:58.824Z,18.03
2023-05-02T12:56:31.914Z,17.87
2023-05-02T12:59:01.464Z,17.75
2023-05-02T13:01:28.806Z,17.32
2023-05-02T13:03:55.911Z,17.36
2023-05-02T13:06:22.973Z,17.35
2023-05-02T13:08:50.175Z,17.40
2023-05-02T13:11:17.897Z,16.88
2023-05-02T13:13:44.921Z,16.85
2023-05-02T13:16:12.130Z,17.09
2023-05-02T13:18:39.290Z,17.24
2023-05-02T13:21:06.398Z,17.35
2023-05-02T13:23:33.414Z,17.31
2023-05-02T13:26:00.619Z,17.08
2023-05-02T13:28:29.121Z,17.39
2023-05-02T13:30:56.215Z,17.34
2023-05-02T13:33:23.353Z,17.10
2023-05-02T13:35:50.369Z,16.32
2023-05-02T13:38:17.360Z,15.92
2023-05-02T13:40:44.450Z,15.71
2023-05-02T13:43:11.521Z,15.82
2023-05-02T13:45:38.677Z,15.29
2023-05-02T13:48:06.119Z,14.82
2023-05-02T13:50:37.188Z,14.90
2023-05-02T13:53:04.248Z,14.73
2023-05-02T13:55:31.384Z,15.00
2023-05-02T13:57:58.466Z,14.76
2023-05-02T14:00:25.604Z,14.68
2023-05-02T14:02:53.190Z,14.21
2023-05-02T14:05:20.399Z,14.15
2023-05-02T14:07:47.444Z,14.27
2023-05-02T14:10:14.482Z,14.37
2023-05-02T14:12:41.609Z,14.24
2023-05-02T14:15:09.067Z,13.96
2023-05-02T14:17:36.164Z,14.02
2023-05-02T14:20:03.846Z,14.13
2023-05-02T14:22:31.158Z,13.83
2023-05-02T14:24:58.202Z,13.71
2023-05-02T14:27:25.731Z,13.69
2023-05-02T14:29:52.937Z,13.63
2023-05-02T14:32:19.953Z,13.54
2023-05-02T14:34:46.993Z,13.37
2023-05-02T14:37:13.993Z,13.47
2023-05-02T14:39:42.676Z,13.54
2023-05-02T14:42:09.805Z,13.55
2023-05-02T14:44:36.833Z,13.67
2023-05-02T14:47:03.950Z,13.71
2023-05-02T14:49:31.015Z,13.81
2023-05-02T14:51:58.680Z,13.75
2023-05-02T14:54:26.639Z,13.89
2023-05-02T14:56:53.928Z,14.01
2023-05-02T14:59:21.306Z,14.17
2023-05-02T15:01:48.552Z,14.11
2023-05-02T15:04:17.984Z,13.96
2023-05-02T15:06:45.390Z,13.91
2023-05-02T15:09:12.812Z,13.96
2023-05-02T15:11:40.113Z,13.92
2023-05-02T15:14:07.263Z,13.93
2023-05-02T15:16:34.398Z,13.96
2023-05-02T15:19:01.534Z,13.93
2023-05-02T15:21:28.639Z,13.95
2023-05-02T15:23:56.025Z,13.99
2023-05-02T15:26:24.332Z,13.89
2023-05-02T15:28:51.532Z,13.89
2023-05-02T15:31:18.585Z,13.91
2023-05-02T15:33:45.671Z,13.83
2023-05-02T15:36:13.055Z,13.74
2023-05-02T15:38:42.561Z,13.78
2023-05-02T15:41:12.687Z,13.75
2023-05-02T15:43:39.824Z,13.76
2023-05-02T15:46:06.938Z,13.75
2023-05-02T15:48:34.874Z,13.74
2023-05-02T15:51:02.945Z,13.75
2023-05-02T15:53:30.313Z,13.56
2023-05-02T15:55:57.377Z,13.60
2023-05-02T15:58:24.433Z,13.43
2023-05-02T16:00:52.564Z,13.43
2023-05-02T16:03:19.978Z,13.37
2023-05-02T16:05:47.242Z,13.42
2023-05-02T16:08:14.309Z,13.42
2023-05-02T16:10:43.389Z,13.34
2023-05-02T16:13:10.497Z,13.34
2023-05-02T16:15:38.020Z,13.36
2023-05-02T16:18:05.138Z,13.31
2023-05-02T16:20:36.694Z,13.25
2023-05-02T16:23:04.184Z,13.23
2023-05-02T16:25:31.391Z,13.11
2023-05-02T16:27:59.660Z,13.11
2023-05-02T16:30:28.194Z,13.03
2023-05-02T16:32:55.485Z,12.97
2023-05-02T16:35:22.636Z,12.85
2023-05-02T16:37:49.664Z,12.77
2023-05-02T16:40:16.764Z,12.76
2023-05-02T16:42:43.778Z,12.72
2023-05-02T16:45:11.014Z,12.76
2023-05-02T16:47:38.537Z,12.74
2023-05-02T16:50:06.371Z,12.72
2023-05-02T16:52:36.491Z,12.64
2023-05-02T16:55:04.127Z,12.58
2023-05-02T16:57:31.205Z,12.57
2023-05-02T16:59:58.874Z,12.57
2023-05-02T17:02:26.042Z,12.60
2023-05-02T17:04:53.269Z,12.54
2023-05-02T17:07:20.312Z,12.51
2023-05-02T17:09:47.384Z,12.43
2023-05-02T17:12:15.673Z,12.45
2023-05-02T17:14:43.360Z,12.47
2023-05-02T17:17:10.466Z,12.44
2023-05-02T17:19:39.462Z,12.43
2023-05-02T17:22:06.876Z,12.40
2023-05-02T17:24:34.457Z,12.41
2023-05-02T17:27:02.763Z,12.36
2023-05-02T17:29:29.809Z,12.36
2023-05-02T17:32:02.796Z,12.36
2023-05-02T17:34:30.427Z,12.33
2023-05-02T17:36:57.480Z,12.29
2023-05-02T17:39:24.593Z,12.24
2023-05-02T17:41:51.622Z,12.20
2023-05-02T17:44:18.737Z,12.23
2023-05-02T17:46:46.703Z,12.19
2023-05-02T17:49:13.899Z,12.08
2023-05-02T17:51:40.969Z,12.08
2023-05-02T17:54:08.035Z,12.09
2023-05-02T17:56:36.693Z,12.09
2023-05-02T17:59:04.955Z,12.07
2023-05-02T18:01:32.148Z,12.09
2023-05-02T18:03:59.580Z,12.06
2023-05-02T18:06:28.206Z,12.05
2023-05-02T18:08:55.463Z,12.02
2023-05-02T18:11:24.197Z,11.99
2023-05-02T18:13:51.989Z,11.96
2023-05-02T18:16:19.270Z,11.89
2023-05-02T18:18:46.450Z,11.86
2023-05-02T18:21:20.436Z,11.83
2023-05-02T18:23:47.444Z,11.76
2023-05-02T18:26:15.079Z,11.67
2023-05-02T18:28:44.589Z,11.60
2023-05-02T18:31:17.743Z,11.54
2023-05-02T18:33:46.599Z,11.45
2023-05-02T18:36:14.296Z,11.40
2023-05-02T18:38:42.143Z,11.31
2023-05-02T18:41:09.402Z,11.18
2023-05-02T18:43:38.282Z,11.23
2023-05-02T18:46:05.368Z,11.21
2023-05-02T18:48:32.382Z,11.23
2023-05-02T18:50:59.444Z,11.23
2023-05-02T18:53:26.631Z,11.20
2023-05-02T18:55:54.203Z,11.20
2023-05-02T18:58:22.479Z,11.19
2023-05-02T19:00:50.936Z,11.18
2023-05-02T19:03:18.910Z,11.14
2023-05-02T19:05:46.046Z,11.14
2023-05-02T19:08:13.061Z,11.13
2023-05-02T19:10:40.067Z,11.13
2023-05-02T19:13:07.112Z,11.08
2023-05-02T19:15:34.238Z,10.94
2023-05-02T19:18:01.357Z,10.94
2023-05-02T19:20:29.895Z,10.95
2023-05-02T19:23:10.971Z,10.87
2023-05-02T19:25:42.327Z,10.74
2023-05-02T19:28:10.657Z,10.75
2023-05-02T19:30:42.309Z,10.72
2023-05-02T19:33:09.510Z,10.66
2023-05-02T19:35:36.645Z,10.64
2023-05-02T19:38:03.695Z,10.50
2023-05-02T19:40:31.369Z,10.45
2023-05-02T19:42:58.419Z,10.44
2023-05-02T19:45:25.451Z,10.46
2023-05-02T19:47:52.618Z,10.43
2023-05-02T19:50:19.916Z,10.41
2023-05-02T19:52:47.013Z,10.39
2023-05-02T19:55:16.016Z,10.36
2023-05-02T19:57:44.595Z,10.34
2023-05-02T20:00:12.890Z,10.32
2023-05-02T20:02:40.109Z,10.31
2023-05-02T20:05:07.590Z,10.27
2023-05-02T20:07:34.620Z,10.22
2023-05-02T20:10:01.923Z,10.10
2023-05-02T20:12:29.149Z,10.04
2023-05-02T20:14:56.216Z,10.00
2023-05-02T20:17:23.429Z,9.94
2023-05-02T20:19:50.855Z,9.86
2023-05-02T20:22:18.213Z,9.81
2023-05-02T20:24:45.341Z,9.80
2023-05-02T20:27:12.472Z,9.79
2023-05-02T20:29:39.520Z,9.68
2023-05-02T20:32:06.591Z,9.62
2023-05-02T20:34:35.373Z,9.59
2023-05-02T20:37:05.256Z,9.58
2023-05-02T20:39:32.575Z,9.54
2023-05-02T20:41:59.626Z,9.50
2023-05-02T20:44:30.740Z,9.51
2023-05-02T20:46:57.760Z,9.52
2023-05-02T20:49:24.863Z,9.61
2023-05-02T20:51:52.193Z,9.73
2023-05-02T20:54:19.235Z,9.71
2023-05-02T20:56:46.372Z,9.73
2023-05-02T20:59:13.376Z,9.75
2023-05-02T21:01:40.418Z,9.85
2023-05-02T21:04:09.316Z,9.75
2023-05-02T21:06:36.360Z,9.72
2023-05-02T21:09:03.719Z,9.68
2023-05-02T21:11:31.328Z,9.66
2023-05-02T21:13:58.460Z,9.65
2023-05-02T21:16:25.716Z,9.62
2023-05-02T21:18:53.013Z,9.64
2023-05-02T21:21:20.074Z,9.61
2023-05-02T21:23:47.055Z,9.65
2023-05-02T21:26:14.060Z,9.63
2023-05-02T21:28:41.095Z,9.58
2023-05-02T21:31:08.398Z,9.56
2023-05-02T21:33:35.834Z,9.50
2023-05-02T21:36:02.869Z,9.55
2023-05-02T21:38:29.925Z,9.47
2023-05-02T21:41:01.064Z,9.44
2023-05-02T21:43:29.595Z,9.41
2023-05-02T21:45:56.610Z,9.33
2023-05-02T21:48:23.681Z,9.31
2023-05-02T21:50:50.900Z,9.24
2023-05-02T21:53:17.944Z,9.23
2023-05-02T21:55:45.054Z,9.24
2023-05-02T21:58:12.226Z,9.13
2023-05-02T22:00:40.493Z,9.11
2023-05-02T22:03:09.908Z,9.06
2023-05-02T22:05:41.290Z,8.92
2023-05-02T22:08:09.051Z,8.97
2023-05-02T22:10:38.517Z,8.95
2023-05-02T22:13:09.305Z,8.88
2023-05-02T22:15:36.562Z,8.93
2023-05-02T22:18:06.759Z,9.09
2023-05-02T22:20:33.964Z,8.85
2023-05-02T22:23:01.313Z,8.96
2023-05-02T22:25:29.043Z,8.98
2023-05-02T22:27:56.041Z,8.97
2023-05-02T22:30:23.166Z,9.04
2023-05-02T22:32:50.291Z,9.03
2023-05-02T22:35:18.023Z,8.81
2023-05-02T22:37:45.012Z,8.78
2023-05-02T22:40:12.586Z,8.85
2023-05-02T22:42:39.698Z,8.86
2023-05-02T22:45:07.816Z,8.85
2023-05-02T22:47:35.819Z,8.83
2023-05-02T22:50:05.041Z,8.89
2023-05-02T22:52:37.735Z,8.94
2023-05-02T22:55:08.607Z,8.95
2023-05-02T22:57:36.236Z,8.89
2023-05-02T23:00:05.309Z,8.89
2023-05-02T23:02:33.424Z,8.88
2023-05-02T23:05:01.116Z,8.89
2023-05-02T23:07:28.117Z,8.83
2023-05-02T23:09:55.741Z,8.81
2023-05-02T23:12:22.802Z,8.79
2023-05-02T23:14:49.844Z,8.78
2023-05-02T23:17:16.977Z,8.65
2023-05-02T23:19:44.076Z,8.59
2023-05-02T23:22:11.417Z,8.56
2023-05-02T23:24:38.516Z,8.59
2023-05-02T23:27:07.545Z,8.53
2023-05-02T23:29:34.907Z,8.36
2023-05-02T23:32:02.038Z,8.21
2023-05-02T23:34:30.138Z,8.24
2023-05-02T23:36:57.239Z,8.15
2023-05-02T23:39:24.263Z,8.08
2023-05-02T23:41:51.746Z,8.10
2023-05-02T23:44:18.823Z,8.13
2023-05-02T23:46:46.089Z,8.27
2023-05-02T23:49:13.110Z,8.25
2023-05-02T23:51:40.567Z,8.35
2023-05-02T23:54:07.618Z,8.30
2023-05-02T23:56:34.639Z,8.16
2023-05-02T23:59:01.681Z,8.05
